createdAt,value
2022-10-04T00:04:09.412Z,101866.50
2022-10-04T00:09:19.674Z,101865.06
2022-10-04T00:14:28.041Z,101863.72
2022-10-04T00:19:47.090Z,101847.94
2022-10-04T00:25:20.711Z,101846.56
2022-10-04T00:30:23.481Z,101841.50
2022-10-04T00:35:24.769Z,101831.81
2022-10-04T00:40:28.389Z,101827.19
2022-10-04T00:45:35.060Z,101825.97
2022-10-04T00:50:44.823Z,101828.66
2022-10-04T00:55:49.655Z,101821.91
2022-10-04T01:00:52.553Z,101820.38
2022-10-04T01:05:57.316Z,101819.72
2022-10-04T01:11:01.507Z,101819.53
2022-10-04T01:16:02.897Z,101810.59
2022-10-04T01:21:07.118Z,101802.16
2022-10-04T01:26:26.811Z,101805.09
2022-10-04T01:31:28.747Z,101798.47
2022-10-04T01:36:30.101Z,101790.38
2022-10-04T01:47:41.777Z,101774.44
2022-10-04T01:52:47.287Z,101775.66
2022-10-04T01:57:50.542Z,101783.09
2022-10-04T02:02:56.234Z,101779.19
2022-10-04T02:08:02.305Z,101775.59
2022-10-04T02:13:05.311Z,101764.38
2022-10-04T02:18:11.849Z,101765.44
2022-10-04T02:23:14.127Z,101757.34
2022-10-04T02:28:16.515Z,101762.06
2022-10-04T02:33:17.889Z,101746.94
2022-10-04T02:38:22.537Z,101761.16
2022-10-04T02:43:39.897Z,101755.44
2022-10-04T02:48:47.324Z,101761.25
2022-10-04T02:53:49.282Z,101762.13
2022-10-04T02:58:50.714Z,101774.03
2022-10-04T03:03:53.546Z,101769.44
2022-10-04T03:08:54.950Z,101763.28
2022-10-04T03:13:57.465Z,101760.44
2022-10-04T03:18:58.891Z,101748.03
2022-10-04T03:24:01.658Z,101743.44
2022-10-04T03:29:05.711Z,101754.00
2022-10-04T03:34:12.956Z,101748.50
2022-10-04T03:39:16.803Z,101741.28
2022-10-04T03:44:18.839Z,101727.63
2022-10-04T03:49:40.399Z,101723.38
2022-10-04T03:54:41.893Z,101711.66
2022-10-04T03:59:43.992Z,101713.72
2022-10-04T04:04:49.564Z,101707.88
2022-10-04T04:09:54.118Z,101712.50
2022-10-04T04:14:55.664Z,101697.38
2022-10-04T04:20:02.261Z,101690.91
2022-10-04T04:25:09.084Z,101701.47
2022-10-04T04:30:15.236Z,101696.56
2022-10-04T04:35:32.355Z,101693.16
2022-10-04T04:40:34.164Z,101705.72
2022-10-04T04:45:36.656Z,101710.00
2022-10-04T04:50:39.821Z,101707.31
2022-10-04T04:56:03.367Z,101705.03
2022-10-04T05:01:25.745Z,101708.13
2022-10-04T05:06:27.888Z,101710.16
2022-10-04T05:11:34.568Z,101704.13
2022-10-04T05:16:42.006Z,101703.00
2022-10-04T05:21:46.457Z,101704.97
2022-10-04T05:26:58.991Z,101697.06
2022-10-04T05:32:05.080Z,101702.81
2022-10-04T05:37:20.555Z,101701.97
2022-10-04T05:42:24.161Z,101693.78
2022-10-04T05:47:27.609Z,101704.72
2022-10-04T05:52:33.232Z,101706.97
2022-10-04T05:57:40.593Z,101704.81
2022-10-04T06:03:17.494Z,101693.28
2022-10-04T06:08:31.171Z,101703.41
2022-10-04T06:13:52.621Z,101693.88
2022-10-04T06:18:53.908Z,101693.13
2022-10-04T06:24:14.348Z,101690.31
2022-10-04T06:29:22.042Z,101691.13
2022-10-04T06:34:23.380Z,101682.50
2022-10-04T06:39:27.477Z,101670.50
2022-10-04T06:44:29.311Z,101674.03
2022-10-04T06:49:59.956Z,101660.69
2022-10-04T06:55:20.950Z,101667.81
2022-10-04T07:00:23.254Z,101675.72
2022-10-04T07:05:36.152Z,101676.03
2022-10-04T07:10:50.356Z,101676.97
2022-10-04T07:16:01.507Z,101672.25
2022-10-04T07:21:06.566Z,101676.13
2022-10-04T07:26:16.590Z,101682.25
2022-10-04T07:31:23.426Z,101685.91
2022-10-04T07:36:45.317Z,101692.63
2022-10-04T07:41:55.813Z,101687.66
2022-10-04T07:47:03.272Z,101678.81
2022-10-04T07:52:22.926Z,101675.63
2022-10-04T07:57:24.213Z,101684.06
2022-10-04T08:02:30.760Z,101674.75
2022-10-04T08:07:46.308Z,101673.44
2022-10-04T08:12:54.991Z,101674.41
2022-10-04T08:18:02.477Z,101680.44
2022-10-04T08:23:32.046Z,101688.31
2022-10-04T08:28:54.016Z,101682.31
2022-10-04T08:33:55.321Z,101673.28
2022-10-04T08:38:57.199Z,101667.03
2022-10-04T08:43:59.482Z,101667.38
2022-10-04T08:49:21.433Z,101669.81
2022-10-04T08:54:29.220Z,101669.25
2022-10-04T08:59:48.580Z,101678.13
2022-10-04T09:04:53.007Z,101671.00
2022-10-04T09:10:13.544Z,101673.53
2022-10-04T09:15:20.095Z,101664.81
2022-10-04T09:20:39.625Z,101669.66
2022-10-04T09:25:41.834Z,101661.84
2022-10-04T09:31:00.378Z,101649.97
2022-10-04T09:36:01.679Z,101634.81
2022-10-04T09:41:06.083Z,101654.97
2022-10-04T09:46:23.192Z,101645.34
2022-10-04T09:51:29.609Z,101654.91
2022-10-04T09:56:41.451Z,101638.16
2022-10-04T10:02:02.992Z,101631.16
2022-10-04T10:07:22.987Z,101634.63
2022-10-04T10:13:01.744Z,101626.53
2022-10-04T10:18:23.320Z,101614.72
2022-10-04T10:23:24.608Z,101614.44
2022-10-04T10:28:32.092Z,101614.19
2022-10-04T10:33:38.144Z,101606.44
2022-10-04T10:38:42.607Z,101597.09
2022-10-04T10:43:55.448Z,101597.44
2022-10-04T10:49:11.049Z,101600.25
2022-10-04T10:54:30.938Z,101590.22
2022-10-04T10:59:44.042Z,101579.47
2022-10-04T11:04:54.643Z,101581.09
2022-10-04T11:10:18.007Z,101578.34
2022-10-04T11:15:31.759Z,101568.72
2022-10-04T11:20:51.963Z,101573.53
2022-10-04T11:26:08.669Z,101562.13
2022-10-04T11:31:13.024Z,101550.41
2022-10-04T11:36:38.066Z,101530.16
2022-10-04T11:41:51.678Z,101531.06
2022-10-04T11:46:54.878Z,101524.31
2022-10-04T11:52:09.219Z,101515.69
2022-10-04T11:57:28.718Z,101516.00
2022-10-04T12:02:50.120Z,101504.75
2022-10-04T12:07:54.627Z,101497.22
2022-10-04T12:13:11.681Z,101498.03
2022-10-04T12:18:32.832Z,101493.06
2022-10-04T12:23:45.163Z,101495.81
2022-10-04T12:28:59.850Z,101499.34
2022-10-04T12:34:14.647Z,101467.25
2022-10-04T12:39:31.339Z,101465.78
2022-10-04T12:44:35.710Z,101454.91
2022-10-04T12:49:45.899Z,101458.47
2022-10-04T12:54:52.104Z,101438.75
2022-10-04T12:59:59.931Z,101447.38
2022-10-04T13:05:07.746Z,101445.97
2022-10-04T13:10:25.873Z,101442.28
2022-10-04T13:17:21.778Z,101420.13
2022-10-04T13:20:55.237Z,101428.84
2022-10-04T13:26:04.537Z,101421.41
2022-10-04T13:31:35.197Z,101426.44
2022-10-04T13:36:51.928Z,101410.44
2022-10-04T13:41:59.186Z,101397.72
2022-10-04T13:47:10.785Z,101401.81
2022-10-04T13:53:00.170Z,101399.97
2022-10-04T13:58:25.923Z,101398.13
2022-10-04T14:03:45.421Z,101395.09
2022-10-04T14:08:48.334Z,101397.91
2022-10-04T14:14:10.247Z,101397.47
2022-10-04T14:19:23.805Z,101387.81
2022-10-04T14:24:37.346Z,101385.25
2022-10-04T14:29:54.499Z,101377.59
2022-10-04T14:34:59.771Z,101358.47
2022-10-04T14:40:19.722Z,101356.13
2022-10-04T14:45:26.466Z,101353.00
2022-10-04T14:50:27.814Z,101345.19
2022-10-04T14:55:32.140Z,101331.25
2022-10-04T15:00:48.619Z,101333.38
2022-10-04T15:05:53.104Z,101344.63
2022-10-04T15:11:06.532Z,101345.00
2022-10-04T15:16:12.959Z,101328.91
2022-10-04T15:21:35.918Z,101304.94
2022-10-04T15:26:45.280Z,101320.50
2022-10-04T15:31:49.590Z,101314.41
2022-10-04T15:37:02.951Z,101306.72
2022-10-04T15:42:15.231Z,101307.72
2022-10-04T15:47:30.927Z,101309.34
2022-10-04T15:52:32.211Z,101300.25
2022-10-04T15:57:45.748Z,101297.94
2022-10-04T16:02:47.401Z,101302.38
2022-10-04T16:07:51.800Z,101312.81
2022-10-04T16:12:59.759Z,101315.09
2022-10-04T16:18:19.605Z,101308.63
2022-10-04T16:23:31.698Z,101318.63
2022-10-04T16:29:04.477Z,101313.69
2022-10-04T16:34:07.169Z,101327.25
2022-10-04T16:39:29.349Z,101343.31
2022-10-04T16:44:34.123Z,101356.00
2022-10-04T16:49:45.177Z,101363.75
2022-10-04T16:54:49.567Z,101362.41
2022-10-04T16:59:55.310Z,101369.56
2022-10-04T17:05:17.650Z,101376.66
2022-10-04T17:10:40.179Z,101390.81
2022-10-04T17:15:46.513Z,101395.41
2022-10-04T17:20:56.975Z,101389.66
2022-10-04T17:26:13.407Z,101385.50
2022-10-04T17:31:18.122Z,101398.31
2022-10-04T17:36:33.074Z,101402.22
2022-10-04T17:41:55.667Z,101413.31
2022-10-04T17:47:14.095Z,101406.78
2022-10-04T17:52:36.996Z,101410.16
2022-10-04T17:57:44.849Z,101416.50
2022-10-04T18:03:04.942Z,101412.38
2022-10-04T18:08:19.205Z,101412.75
2022-10-04T18:13:28.700Z,101420.50
2022-10-04T18:18:36.957Z,101427.03
2022-10-04T18:23:39.531Z,101438.97
2022-10-04T18:28:41.032Z,101447.38
2022-10-04T18:33:42.406Z,101443.75
2022-10-04T18:38:45.274Z,101454.19
2022-10-04T18:43:58.475Z,101456.00
2022-10-04T18:49:08.685Z,101449.25
2022-10-04T18:54:21.379Z,101455.44
2022-10-04T18:59:47.814Z,101454.38
2022-10-04T19:04:49.729Z,101454.72
2022-10-04T19:09:53.847Z,101441.34
2022-10-04T19:15:03.482Z,101453.09
2022-10-04T19:20:19.053Z,101463.75
2022-10-04T19:25:20.582Z,101473.41
2022-10-04T19:30:24.601Z,101492.09
2022-10-04T19:35:46.037Z,101499.78
2022-10-04T19:40:53.609Z,101490.63
2022-10-04T19:46:07.647Z,101475.63
2022-10-04T19:51:12.711Z,101483.38
2022-10-04T19:56:26.524Z,101476.06
2022-10-04T20:01:29.625Z,101473.31
2022-10-04T20:06:31.064Z,101460.59
2022-10-04T20:11:38.748Z,101454.56
2022-10-04T20:16:46.289Z,101455.69
2022-10-04T20:21:48.281Z,101446.59
2022-10-04T20:26:54.244Z,101451.66
2022-10-04T20:31:56.076Z,101442.69
2022-10-04T20:36:57.442Z,101445.19
2022-10-04T20:42:20.064Z,101438.34
2022-10-04T20:47:27.816Z,101445.22
2022-10-04T20:52:30.940Z,101443.72
2022-10-04T20:57:34.450Z,101446.34
2022-10-04T21:02:38.788Z,101451.75
2022-10-04T21:07:40.235Z,101461.34
2022-10-04T21:12:41.580Z,101460.03
2022-10-04T21:17:58.299Z,101464.72
2022-10-04T21:23:15.660Z,101470.41
2022-10-04T21:28:33.313Z,101463.91
2022-10-04T21:33:35.363Z,101458.66
2022-10-04T21:38:36.918Z,101455.25
2022-10-04T21:43:38.229Z,101459.63
2022-10-04T21:48:39.531Z,101469.22
2022-10-04T21:53:40.843Z,101466.31
2022-10-04T21:58:42.140Z,101470.53
2022-10-04T22:03:43.472Z,101462.34
2022-10-04T22:08:44.835Z,101474.00
2022-10-04T22:13:46.811Z,101459.69
2022-10-04T22:18:48.115Z,101466.19
2022-10-04T22:23:49.442Z,101473.00
2022-10-04T22:28:51.905Z,101458.31
2022-10-04T22:33:53.485Z,101456.56
2022-10-04T22:38:57.987Z,101451.50
2022-10-04T22:44:02.818Z,101465.63
2022-10-04T22:49:08.946Z,101450.66
2022-10-04T22:54:15.134Z,101440.56
2022-10-04T22:59:19.418Z,101436.13
2022-10-04T23:04:22.503Z,101435.47
2022-10-04T23:09:23.850Z,101433.19
2022-10-04T23:14:25.215Z,101425.09
2022-10-04T23:19:26.554Z,101413.72
2022-10-04T23:24:30.618Z,101415.06
2022-10-04T23:29:33.443Z,101420.44
2022-10-04T23:34:36.188Z,101421.09
2022-10-04T23:39:37.539Z,101397.00
2022-10-04T23:44:38.888Z,101405.41
2022-10-04T23:49:40.599Z,101409.59
2022-10-04T23:54:41.928Z,101407.13
2022-10-04T23:59:43.345Z,101402.66
